createdAt,value
2018-07-02T00:00:13.170Z,17.96
2018-07-02T00:01:12.979Z,17.95
2018-07-02T00:03:06.358Z,17.95
2018-07-02T00:04:06.276Z,17.94
2018-07-02T00:05:59.556Z,17.94
2018-07-02T00:06:59.493Z,17.90
2018-07-02T00:08:52.788Z,17.84
2018-07-02T00:09:52.709Z,17.92
2018-07-02T00:11:45.992Z,17.84
2018-07-02T00:12:45.925Z,17.80
2018-07-02T00:14:39.225Z,17.81
2018-07-02T00:15:39.148Z,17.80
2018-07-02T00:17:32.420Z,17.76
2018-07-02T00:18:32.358Z,17.74
2018-07-02T00:20:25.657Z,17.76
2018-07-02T00:21:25.583Z,17.71
2018-07-02T00:23:18.874Z,17.63
2018-07-02T00:24:18.786Z,17.66
2018-07-02T00:26:12.069Z,17.66
2018-07-02T00:27:12.007Z,17.71
2018-07-02T00:29:05.307Z,17.52
2018-07-02T00:30:05.223Z,17.54
2018-07-02T00:31:58.500Z,17.65
2018-07-02T00:32:58.438Z,17.62
2018-07-02T00:34:51.734Z,17.47
2018-07-02T00:35:51.655Z,17.49
2018-07-02T00:37:44.921Z,17.47
2018-07-02T00:38:44.861Z,17.55
2018-07-02T00:40:38.156Z,17.47
2018-07-02T00:41:38.085Z,17.55
2018-07-02T00:43:31.352Z,17.49
2018-07-02T00:44:31.289Z,17.40
2018-07-02T00:46:24.585Z,17.52
2018-07-02T00:47:24.504Z,17.35
2018-07-02T00:49:17.800Z,17.36
2018-07-02T00:50:17.718Z,17.36
2018-07-02T00:52:10.995Z,17.32
2018-07-02T00:53:10.935Z,17.31
2018-07-02T00:55:04.231Z,17.18
2018-07-02T00:56:04.149Z,17.15
2018-07-02T00:57:57.416Z,17.20
2018-07-02T00:58:57.353Z,17.17
2018-07-02T01:00:50.755Z,17.18
2018-07-02T01:01:50.568Z,17.12
2018-07-02T01:03:43.844Z,17.13
2018-07-02T01:04:43.782Z,17.15
2018-07-02T01:06:37.078Z,17.15
2018-07-02T01:07:36.995Z,17.21
2018-07-02T01:09:30.339Z,17.21
2018-07-02T01:10:30.275Z,17.17
2018-07-02T01:12:23.570Z,17.12
2018-07-02T01:13:23.489Z,17.18
2018-07-02T01:15:16.301Z,17.20
2018-07-02T01:16:16.218Z,17.20
2018-07-02T01:18:09.500Z,17.07
2018-07-02T01:19:09.433Z,17.07
2018-07-02T01:21:02.730Z,17.02
2018-07-02T01:22:02.647Z,17.02
2018-07-02T01:23:55.926Z,17.02
2018-07-02T01:24:55.865Z,17.09
2018-07-02T01:26:49.155Z,17.05
2018-07-02T01:27:49.073Z,16.99
2018-07-02T01:29:42.351Z,17.03
2018-07-02T01:30:42.290Z,17.00
2018-07-02T01:32:35.585Z,16.94
2018-07-02T01:33:35.503Z,16.94
2018-07-02T01:35:28.799Z,16.97
2018-07-02T01:36:28.716Z,16.94
2018-07-02T01:38:22.099Z,16.90
2018-07-02T01:39:21.921Z,16.91
2018-07-02T01:41:15.214Z,16.90
2018-07-02T01:42:15.135Z,16.84
2018-07-02T01:44:08.411Z,16.85
2018-07-02T01:45:08.349Z,16.81
2018-07-02T01:47:01.643Z,16.73
2018-07-02T01:48:01.561Z,16.73
2018-07-02T01:49:54.841Z,16.69
2018-07-02T01:50:54.774Z,16.66
2018-07-02T01:52:48.070Z,16.62
2018-07-02T01:53:47.988Z,16.66
2018-07-02T01:55:41.367Z,16.69
2018-07-02T01:56:41.198Z,16.63
2018-07-02T01:58:34.497Z,16.62
2018-07-02T01:59:34.413Z,16.55
2018-07-02T02:01:27.710Z,16.52
2018-07-02T02:02:27.626Z,16.48
2018-07-02T02:04:20.902Z,16.51
2018-07-02T02:05:20.841Z,16.49
2018-07-02T02:07:14.241Z,16.49
2018-07-02T02:08:14.052Z,16.45
2018-07-02T02:10:07.433Z,16.44
2018-07-02T02:11:07.262Z,16.37
2018-07-02T02:13:00.557Z,16.30
2018-07-02T02:14:00.474Z,16.27
2018-07-02T02:15:53.751Z,16.21
2018-07-02T02:16:53.687Z,16.26
2018-07-02T02:18:46.980Z,16.26
2018-07-02T02:19:46.897Z,16.14
2018-07-02T02:21:40.190Z,16.17
2018-07-02T02:22:40.106Z,16.17
2018-07-02T02:24:33.383Z,16.21
2018-07-02T02:25:33.318Z,16.11
2018-07-02T02:27:26.718Z,15.99
2018-07-02T02:28:26.532Z,16.06
2018-07-02T02:30:19.806Z,15.99
2018-07-02T02:31:19.743Z,15.99
2018-07-02T02:33:13.036Z,15.96
2018-07-02T02:34:12.953Z,15.89
2018-07-02T02:36:06.333Z,15.92
2018-07-02T02:37:06.167Z,15.93
2018-07-02T02:38:59.459Z,15.86
2018-07-02T02:39:59.374Z,15.75
2018-07-02T02:41:52.669Z,15.91
2018-07-02T02:42:52.584Z,15.89
2018-07-02T02:44:45.879Z,15.86
2018-07-02T02:45:45.796Z,15.91
2018-07-02T02:47:39.072Z,15.77
2018-07-02T02:48:39.008Z,15.92
2018-07-02T02:50:32.407Z,15.93
2018-07-02T02:51:32.273Z,15.77
2018-07-02T02:53:25.651Z,15.81
2018-07-02T02:54:25.483Z,15.77
2018-07-02T02:56:18.781Z,15.83
2018-07-02T02:57:18.699Z,15.78
2018-07-02T02:59:11.971Z,15.77
2018-07-02T03:00:11.905Z,15.74
2018-07-02T03:02:05.202Z,15.68
2018-07-02T03:03:05.119Z,15.60
2018-07-02T03:04:58.496Z,15.67
2018-07-02T03:05:58.331Z,15.63
2018-07-02T03:07:51.625Z,15.52
2018-07-02T03:08:51.541Z,15.53
2018-07-02T03:10:44.832Z,15.55
2018-07-02T03:11:44.750Z,15.59
2018-07-02T03:13:38.026Z,15.58
2018-07-02T03:14:37.960Z,15.55
2018-07-02T03:16:31.254Z,15.63
2018-07-02T03:17:31.171Z,15.55
2018-07-02T03:19:24.552Z,15.63
2018-07-02T03:20:24.412Z,15.53
2018-07-02T03:22:17.783Z,15.47
2018-07-02T03:23:17.592Z,15.56
2018-07-02T03:25:10.863Z,15.51
2018-07-02T03:26:10.800Z,15.53
2018-07-02T03:28:04.085Z,15.53
2018-07-02T03:29:04.004Z,15.51
2018-07-02T03:30:57.313Z,15.44
2018-07-02T03:31:57.213Z,15.43
2018-07-02T03:33:50.489Z,15.51
2018-07-02T03:34:50.420Z,15.44
2018-07-02T03:36:43.823Z,15.45
2018-07-02T03:37:43.635Z,15.49
2018-07-02T03:39:36.905Z,15.43
2018-07-02T03:40:36.840Z,15.47
2018-07-02T03:42:30.139Z,15.51
2018-07-02T03:43:30.053Z,15.40
2018-07-02T03:45:23.438Z,15.51
2018-07-02T03:46:23.261Z,15.51
2018-07-02T03:48:16.548Z,15.41
2018-07-02T03:49:16.463Z,15.44
2018-07-02T03:51:09.739Z,15.41
2018-07-02T03:52:09.696Z,15.56
2018-07-02T03:54:02.968Z,15.49
2018-07-02T03:55:02.884Z,15.52
2018-07-02T03:56:56.178Z,15.49
2018-07-02T03:57:56.095Z,15.51
2018-07-02T03:59:49.370Z,15.58
2018-07-02T04:00:49.307Z,15.51
2018-07-02T04:02:42.602Z,15.55
2018-07-02T04:03:42.518Z,15.51
2018-07-02T04:05:35.793Z,15.52
2018-07-02T04:06:35.728Z,15.52
2018-07-02T04:08:29.023Z,15.51
2018-07-02T04:09:28.939Z,15.52
2018-07-02T04:11:22.212Z,15.51
2018-07-02T04:12:22.150Z,15.53
2018-07-02T04:14:15.445Z,15.56
2018-07-02T04:15:15.357Z,15.51
2018-07-02T04:17:08.777Z,15.53
2018-07-02T04:18:08.570Z,15.55
2018-07-02T04:20:01.950Z,15.56
2018-07-02T04:21:01.782Z,15.56
2018-07-02T04:22:55.185Z,15.63
2018-07-02T04:23:54.991Z,15.55
2018-07-02T04:25:48.341Z,15.58
2018-07-02T04:26:48.274Z,15.60
2018-07-02T04:28:41.674Z,15.67
2018-07-02T04:29:41.477Z,15.70
2018-07-02T04:31:34.856Z,15.71
2018-07-02T04:32:34.694Z,15.71
2018-07-02T04:34:27.980Z,15.77
2018-07-02T04:35:27.896Z,15.78
2018-07-02T04:37:21.171Z,15.75
2018-07-02T04:38:21.106Z,15.73
2018-07-02T04:40:14.509Z,15.80
2018-07-02T04:41:14.318Z,15.93
2018-07-02T04:43:07.612Z,15.86
2018-07-02T04:44:07.529Z,15.89
2018-07-02T04:46:00.908Z,15.89
2018-07-02T04:47:00.741Z,15.80
2018-07-02T04:48:54.035Z,15.81
2018-07-02T04:49:53.952Z,15.92
2018-07-02T04:51:47.332Z,15.92
2018-07-02T04:52:47.163Z,15.91
2018-07-02T04:54:40.561Z,15.98
2018-07-02T04:55:40.376Z,16.00
2018-07-02T04:57:33.648Z,15.99
2018-07-02T04:58:33.587Z,16.06
2018-07-02T05:00:26.880Z,16.16
2018-07-02T05:01:26.797Z,16.33
2018-07-02T05:03:20.073Z,16.22
2018-07-02T05:04:20.009Z,16.27
2018-07-02T05:06:13.303Z,16.21
2018-07-02T05:07:13.220Z,16.26
2018-07-02T05:09:06.507Z,16.30
2018-07-02T05:10:06.433Z,16.29
2018-07-02T05:11:59.727Z,16.42
2018-07-02T05:12:59.643Z,16.51
2018-07-02T05:14:52.938Z,16.57
2018-07-02T05:15:52.856Z,16.57
2018-07-02T05:17:46.122Z,16.62
2018-07-02T05:18:46.060Z,16.65
2018-07-02T05:20:39.359Z,16.66
2018-07-02T05:21:39.279Z,16.66
2018-07-02T05:23:32.553Z,16.69
2018-07-02T05:24:32.486Z,16.76
2018-07-02T05:26:25.782Z,16.73
2018-07-02T05:27:25.708Z,16.72
2018-07-02T05:29:18.976Z,16.90
2018-07-02T05:30:18.914Z,16.97
2018-07-02T05:32:12.205Z,17.05
2018-07-02T05:33:12.125Z,17.02
2018-07-02T05:35:05.439Z,16.99
2018-07-02T05:36:05.349Z,17.03
2018-07-02T05:37:58.625Z,17.13
2018-07-02T05:38:58.628Z,17.20
2018-07-02T05:40:51.861Z,17.24
2018-07-02T05:41:51.774Z,17.30
2018-07-02T05:43:45.053Z,17.30
2018-07-02T05:44:44.987Z,17.32
2018-07-02T05:46:38.285Z,17.32
2018-07-02T05:47:38.202Z,17.40
2018-07-02T05:49:31.481Z,17.49
2018-07-02T05:50:31.437Z,17.50
2018-07-02T05:52:24.713Z,17.58
2018-07-02T05:53:24.630Z,17.49
2018-07-02T05:55:17.923Z,17.50
2018-07-02T05:56:17.843Z,17.57
2018-07-02T05:58:11.135Z,17.69
2018-07-02T05:59:11.060Z,17.76
2018-07-02T06:01:04.460Z,17.74
2018-07-02T06:02:04.274Z,17.77
2018-07-02T06:03:57.552Z,17.94
2018-07-02T06:04:57.484Z,17.99
2018-07-02T06:06:50.783Z,17.95
2018-07-02T06:07:50.764Z,17.94
2018-07-02T06:09:44.082Z,18.13
2018-07-02T06:10:43.918Z,18.21
2018-07-02T06:12:37.297Z,18.29
2018-07-02T06:13:37.134Z,18.38
2018-07-02T06:15:30.429Z,18.71
2018-07-02T06:16:30.409Z,18.89
2018-07-02T06:18:23.647Z,19.67
2018-07-02T06:19:23.569Z,20.38
2018-07-02T06:21:16.871Z,21.03
2018-07-02T06:22:16.796Z,21.43
2018-07-02T06:24:10.082Z,21.67
2018-07-02T06:25:10.027Z,21.74
2018-07-02T06:27:03.365Z,21.82
2018-07-02T06:28:03.291Z,22.27
2018-07-02T06:29:56.686Z,22.44
2018-07-02T06:30:56.529Z,22.24
2018-07-02T06:32:49.845Z,22.60
2018-07-02T06:33:49.774Z,22.63
2018-07-02T06:35:43.066Z,22.39
2018-07-02T06:36:43.018Z,22.84
2018-07-02T06:38:36.329Z,22.89
2018-07-02T06:39:36.262Z,22.92
2018-07-02T06:41:30.578Z,22.67
2018-07-02T06:42:30.507Z,23.01
2018-07-02T06:44:23.801Z,23.63
2018-07-02T06:45:23.752Z,23.71
2018-07-02T06:47:17.070Z,23.50
2018-07-02T06:48:17.003Z,23.15
2018-07-02T06:50:10.299Z,23.71
2018-07-02T06:51:10.250Z,23.63
2018-07-02T06:53:03.567Z,23.71
2018-07-02T06:54:03.499Z,23.89
2018-07-02T06:55:56.801Z,23.93
2018-07-02T06:56:56.747Z,24.07
2018-07-02T06:58:50.065Z,24.54
2018-07-02T06:59:49.998Z,24.61
2018-07-02T07:01:43.353Z,25.15
2018-07-02T07:02:43.302Z,25.29
2018-07-02T07:04:36.621Z,24.75
2018-07-02T07:05:36.553Z,24.55
2018-07-02T07:07:30.871Z,24.80
2018-07-02T07:08:30.844Z,24.66
2018-07-02T07:10:24.105Z,24.55
2018-07-02T07:11:24.055Z,24.39
2018-07-02T07:13:17.372Z,24.29
2018-07-02T07:14:17.306Z,24.69
2018-07-02T07:16:10.602Z,24.87
2018-07-02T07:17:10.553Z,24.46
2018-07-02T07:19:03.875Z,24.69
2018-07-02T07:20:03.806Z,24.55
2018-07-02T07:21:57.102Z,24.48
2018-07-02T07:22:57.057Z,24.21
2018-07-02T07:24:50.377Z,24.59
2018-07-02T07:25:50.346Z,24.94
2018-07-02T07:27:43.627Z,24.59
2018-07-02T07:28:43.563Z,24.29
2018-07-02T07:30:36.861Z,25.01
2018-07-02T07:31:36.859Z,25.42
2018-07-02T07:33:30.129Z,25.32
2018-07-02T07:34:30.060Z,25.09
2018-07-02T07:36:23.356Z,25.19
2018-07-02T07:37:23.337Z,25.17
2018-07-02T07:39:16.730Z,24.85
2018-07-02T07:40:16.559Z,24.69
2018-07-02T07:42:09.960Z,25.15
2018-07-02T07:43:09.803Z,25.41
2018-07-02T07:45:03.120Z,24.94
2018-07-02T07:46:03.053Z,24.70
2018-07-02T07:47:56.355Z,25.29
2018-07-02T07:48:56.302Z,25.05
2018-07-02T07:50:49.616Z,24.92
2018-07-02T07:51:49.548Z,24.74
2018-07-02T07:53:42.864Z,24.90
2018-07-02T07:54:42.793Z,25.12
2018-07-02T07:56:36.089Z,25.52
2018-07-02T07:57:36.039Z,25.52
2018-07-02T07:59:29.424Z,26.09
2018-07-02T08:00:29.306Z,26.11
2018-07-02T08:02:22.596Z,25.67
2018-07-02T08:03:22.563Z,25.41
2018-07-02T08:05:15.996Z,25.45
2018-07-02T08:06:15.795Z,25.71
2018-07-02T08:08:09.093Z,25.33
2018-07-02T08:09:09.046Z,25.39
2018-07-02T08:11:02.369Z,25.32
2018-07-02T08:12:02.300Z,25.54
2018-07-02T08:13:55.629Z,25.41
2018-07-02T08:14:55.580Z,25.48
2018-07-02T08:16:48.844Z,25.37
2018-07-02T08:17:48.794Z,25.05
2018-07-02T08:19:42.210Z,24.97
2018-07-02T08:20:42.033Z,25.08
2018-07-02T08:22:35.324Z,25.41
2018-07-02T08:23:35.276Z,25.48
2018-07-02T08:25:28.698Z,24.89
2018-07-02T08:26:28.529Z,24.46
2018-07-02T08:28:21.817Z,24.49
2018-07-02T08:29:21.770Z,24.58
2018-07-02T08:31:15.076Z,25.15
2018-07-02T08:32:15.002Z,25.01
2018-07-02T08:34:08.429Z,25.51
2018-07-02T08:35:08.293Z,25.71
2018-07-02T08:37:01.586Z,25.34
2018-07-02T08:38:01.531Z,25.32
2018-07-02T08:39:54.835Z,25.52
2018-07-02T08:40:54.762Z,25.26
2018-07-02T08:42:48.048Z,24.85
2018-07-02T08:43:47.999Z,24.89
2018-07-02T08:45:41.410Z,24.46
2018-07-02T08:46:41.230Z,24.54
2018-07-02T08:48:34.517Z,24.61
2018-07-02T08:49:34.463Z,24.87
2018-07-02T08:51:27.879Z,24.80
2018-07-02T08:52:27.695Z,24.48
2018-07-02T08:54:20.977Z,24.80
2018-07-02T08:55:20.929Z,24.71
2018-07-02T08:57:14.225Z,25.26
2018-07-02T08:58:14.217Z,25.85
2018-07-02T09:00:07.457Z,26.35
2018-07-02T09:01:07.384Z,26.17
2018-07-02T09:03:00.665Z,25.63
2018-07-02T09:04:00.613Z,25.23
2018-07-02T09:05:53.913Z,25.91
2018-07-02T09:06:53.881Z,26.09
2018-07-02T09:08:47.128Z,24.90
2018-07-02T09:09:47.073Z,24.96
2018-07-02T09:11:40.377Z,25.49
2018-07-02T09:12:40.302Z,25.39
2018-07-02T09:14:33.623Z,26.24
2018-07-02T09:15:33.533Z,26.59
2018-07-02T09:17:26.846Z,25.84
2018-07-02T09:18:26.770Z,25.59
2018-07-02T09:20:20.050Z,24.97
2018-07-02T09:21:19.998Z,25.17
2018-07-02T09:23:13.301Z,25.78
2018-07-02T09:24:13.229Z,25.62
2018-07-02T09:26:07.557Z,26.41
2018-07-02T09:27:07.462Z,26.20
2018-07-02T09:29:01.746Z,26.23
2018-07-02T09:30:01.734Z,25.97
2018-07-02T09:31:54.998Z,25.82
2018-07-02T09:32:54.923Z,25.85
2018-07-02T09:34:49.209Z,26.01
2018-07-02T09:35:49.156Z,26.24
2018-07-02T09:37:42.449Z,25.49
2018-07-02T09:38:42.375Z,26.04
2018-07-02T09:40:35.769Z,26.45
2018-07-02T09:41:35.611Z,26.90
2018-07-02T09:43:28.911Z,26.76
2018-07-02T09:44:28.841Z,25.96
2018-07-02T09:46:22.158Z,25.34
2018-07-02T09:47:22.070Z,25.44
2018-07-02T09:49:15.354Z,25.66
2018-07-02T09:50:15.302Z,25.74
2018-07-02T09:52:08.712Z,25.93
2018-07-02T09:53:08.532Z,26.24
2018-07-02T09:55:01.824Z,26.63
2018-07-02T09:56:01.765Z,26.38
2018-07-02T09:57:55.177Z,27.11
2018-07-02T09:58:54.998Z,27.49
2018-07-02T10:00:48.285Z,26.68
2018-07-02T10:01:48.227Z,26.74
2018-07-02T10:03:41.531Z,27.87
2018-07-02T10:04:41.469Z,28.35
2018-07-02T10:06:34.859Z,26.75
2018-07-02T10:07:34.697Z,26.59
2018-07-02T10:09:28.003Z,27.11
2018-07-02T10:10:27.930Z,27.11
2018-07-02T10:12:21.239Z,27.11
2018-07-02T10:13:21.165Z,27.52
2018-07-02T10:15:14.454Z,27.64
2018-07-02T10:16:14.403Z,28.01
2018-07-02T10:18:07.708Z,27.55
2018-07-02T10:19:07.634Z,27.72
2018-07-02T10:21:01.032Z,26.91
2018-07-02T10:22:00.871Z,27.49
2018-07-02T10:23:54.202Z,28.51
2018-07-02T10:24:54.109Z,28.28
2018-07-02T10:26:47.426Z,27.33
2018-07-02T10:27:47.349Z,27.31
2018-07-02T10:29:40.634Z,27.46
2018-07-02T10:30:40.591Z,27.66
2018-07-02T10:32:34.000Z,28.24
2018-07-02T10:33:33.818Z,27.55
2018-07-02T10:35:27.108Z,27.00
2018-07-02T10:36:27.056Z,26.97
2018-07-02T10:38:20.469Z,28.09
2018-07-02T10:39:20.293Z,28.17
2018-07-02T10:41:13.586Z,27.62
2018-07-02T10:42:13.533Z,27.24
2018-07-02T10:44:06.837Z,27.36
2018-07-02T10:45:06.771Z,27.51
2018-07-02T10:47:00.099Z,26.54
2018-07-02T10:48:00.008Z,26.72
2018-07-02T10:49:53.313Z,27.75
2018-07-02T10:50:53.242Z,27.90
2018-07-02T10:52:46.548Z,27.68
2018-07-02T10:53:46.477Z,27.64
2018-07-02T10:55:39.822Z,27.16
2018-07-02T10:56:39.715Z,27.57
2018-07-02T10:58:33.029Z,27.80
2018-07-02T10:59:32.956Z,27.45
2018-07-02T11:01:26.381Z,26.68
2018-07-02T11:02:26.293Z,26.59
2018-07-02T11:04:19.601Z,26.79
2018-07-02T11:05:19.537Z,27.06
2018-07-02T11:07:12.929Z,26.86
2018-07-02T11:08:12.771Z,26.49
2018-07-02T11:10:06.080Z,27.00
2018-07-02T11:11:06.009Z,26.72
2018-07-02T11:12:59.294Z,26.23
2018-07-02T11:13:59.245Z,26.69
2018-07-02T11:15:52.658Z,27.12
2018-07-02T11:16:52.484Z,27.51
2018-07-02T11:18:45.789Z,26.97
2018-07-02T11:19:45.722Z,26.78
2018-07-02T11:21:39.009Z,27.21
2018-07-02T11:22:38.957Z,27.49
2018-07-02T11:24:32.367Z,27.51
2018-07-02T11:25:32.293Z,26.63
2018-07-02T11:27:25.585Z,25.52
2018-07-02T11:28:25.530Z,25.60
2018-07-02T11:30:18.945Z,25.85
2018-07-02T11:31:18.766Z,26.15
2018-07-02T11:33:12.060Z,26.12
2018-07-02T11:34:12.004Z,26.31
2018-07-02T11:36:05.418Z,26.90
2018-07-02T11:37:05.240Z,27.00
2018-07-02T11:38:58.546Z,26.69
2018-07-02T11:39:58.476Z,26.78
2018-07-02T11:41:51.872Z,26.60
2018-07-02T11:42:51.711Z,25.96
2018-07-02T11:44:45.021Z,25.42
2018-07-02T11:45:44.948Z,25.29
2018-07-02T11:47:38.236Z,25.32
2018-07-02T11:48:38.182Z,25.37
2018-07-02T11:50:31.505Z,25.49
2018-07-02T11:51:31.435Z,25.39
2018-07-02T11:53:24.718Z,24.56
2018-07-02T11:54:24.668Z,24.48
2018-07-02T11:56:18.076Z,24.74
2018-07-02T11:57:17.897Z,24.94
2018-07-02T11:59:11.198Z,25.52
2018-07-02T12:00:11.125Z,25.67
2018-07-02T12:02:04.407Z,25.93
2018-07-02T12:03:04.355Z,25.78
2018-07-02T12:04:57.655Z,25.14
2018-07-02T12:05:57.583Z,25.15
2018-07-02T12:07:50.869Z,25.15
2018-07-02T12:08:50.814Z,24.67
2018-07-02T12:10:45.230Z,24.67
2018-07-02T12:11:45.045Z,24.97
2018-07-02T12:13:38.324Z,25.17
2018-07-02T12:14:38.269Z,25.27
2018-07-02T12:16:31.570Z,25.11
2018-07-02T12:17:31.495Z,25.17
2018-07-02T12:19:24.812Z,25.27
2018-07-02T12:20:24.723Z,25.32
2018-07-02T12:22:18.005Z,25.54
2018-07-02T12:23:17.949Z,25.30
2018-07-02T12:25:11.362Z,24.77
2018-07-02T12:26:11.297Z,24.70
2018-07-02T12:28:04.570Z,24.80
2018-07-02T12:29:04.515Z,25.00
2018-07-02T12:30:57.824Z,25.29
2018-07-02T12:31:57.750Z,25.49
2018-07-02T12:33:51.040Z,25.82
2018-07-02T12:34:50.986Z,25.63
2018-07-02T12:36:44.363Z,25.23
2018-07-02T12:37:44.290Z,25.23
2018-07-02T12:39:37.598Z,25.24
2018-07-02T12:40:37.523Z,25.19
2018-07-02T12:42:30.833Z,25.39
2018-07-02T12:43:30.759Z,25.48
2018-07-02T12:45:24.071Z,25.39
2018-07-02T12:46:23.997Z,25.39
2018-07-02T12:48:17.386Z,25.32
2018-07-02T12:49:17.221Z,25.34
2018-07-02T12:51:10.632Z,25.62
2018-07-02T12:52:10.462Z,25.51
2018-07-02T12:54:03.820Z,25.75
2018-07-02T12:55:03.699Z,25.79
2018-07-02T12:56:57.107Z,25.84
2018-07-02T12:57:56.936Z,25.85
2018-07-02T12:59:50.229Z,25.84
2018-07-02T13:00:50.179Z,25.82
2018-07-02T13:02:43.590Z,25.84
2018-07-02T13:03:43.411Z,25.67
2018-07-02T13:05:36.727Z,25.32
2018-07-02T13:06:36.646Z,25.51
2018-07-02T13:08:29.930Z,25.62
2018-07-02T13:09:29.874Z,25.48
2018-07-02T13:11:23.187Z,25.51
2018-07-02T13:12:23.111Z,25.41
2018-07-02T13:14:16.406Z,25.42
2018-07-02T13:15:16.350Z,25.29
2018-07-02T13:17:10.662Z,25.17
2018-07-02T13:18:10.589Z,25.30
2018-07-02T13:20:03.883Z,25.56
2018-07-02T13:21:03.822Z,25.60
2018-07-02T13:22:57.134Z,25.74
2018-07-02T13:23:57.060Z,25.82
2018-07-02T13:25:50.369Z,26.00
2018-07-02T13:26:50.485Z,25.97
2018-07-02T13:28:43.605Z,26.24
2018-07-02T13:29:43.533Z,26.39
2018-07-02T13:31:37.842Z,26.41
2018-07-02T13:32:37.806Z,26.44
2018-07-02T13:34:31.060Z,26.23
2018-07-02T13:35:31.006Z,26.06
2018-07-02T13:37:24.319Z,25.91
2018-07-02T13:38:24.243Z,25.67
2018-07-02T13:40:17.634Z,25.59
2018-07-02T13:41:17.482Z,25.30
2018-07-02T13:43:10.791Z,25.70
2018-07-02T13:44:10.718Z,25.81
2018-07-02T13:46:04.110Z,25.96
2018-07-02T13:47:03.966Z,25.94
2018-07-02T13:48:57.375Z,25.86
2018-07-02T13:49:57.289Z,25.79
2018-07-02T13:51:50.701Z,25.64
2018-07-02T13:52:50.531Z,25.54
2018-07-02T13:54:43.925Z,25.84
2018-07-02T13:55:43.768Z,25.93
2018-07-02T13:57:37.079Z,25.75
2018-07-02T13:58:37.003Z,25.59
2018-07-02T14:00:30.298Z,25.63
2018-07-02T14:01:30.243Z,25.62
2018-07-02T14:03:23.555Z,25.62
2018-07-02T14:04:23.482Z,25.64
2018-07-02T14:06:16.773Z,25.60
2018-07-02T14:07:16.716Z,25.86
2018-07-02T14:09:10.027Z,26.11
2018-07-02T14:10:09.952Z,26.11
2018-07-02T14:12:04.284Z,25.97
2018-07-02T14:13:04.187Z,25.96
2018-07-02T14:14:57.482Z,26.09
2018-07-02T14:15:57.426Z,26.24
2018-07-02T14:17:50.732Z,26.07
2018-07-02T14:18:50.655Z,26.17
2018-07-02T14:20:43.949Z,26.07
2018-07-02T14:21:43.895Z,26.15
2018-07-02T14:23:37.206Z,26.01
2018-07-02T14:24:37.133Z,26.12
2018-07-02T14:26:30.432Z,25.86
2018-07-02T14:27:30.370Z,25.99
2018-07-02T14:29:23.679Z,26.09
2018-07-02T14:30:23.607Z,26.11
2018-07-02T14:32:16.899Z,26.09
2018-07-02T14:33:16.920Z,26.07
2018-07-02T14:35:10.158Z,26.09
2018-07-02T14:36:10.083Z,25.94
2018-07-02T14:38:03.388Z,25.85
2018-07-02T14:39:03.314Z,25.88
2018-07-02T14:40:57.606Z,26.12
2018-07-02T14:41:57.551Z,26.32
2018-07-02T14:43:50.865Z,26.47
2018-07-02T14:44:50.852Z,26.42
2018-07-02T14:46:44.087Z,26.35
2018-07-02T14:47:44.025Z,26.26
2018-07-02T14:49:37.346Z,26.22
2018-07-02T14:50:37.266Z,26.03
2018-07-02T14:52:30.580Z,26.16
2018-07-02T14:53:30.506Z,26.27
2018-07-02T14:55:23.823Z,26.54
2018-07-02T14:56:23.741Z,26.37
2018-07-02T14:58:17.658Z,26.12
2018-07-02T14:59:16.971Z,26.01
2018-07-02T15:01:10.265Z,26.12
2018-07-02T15:02:10.209Z,26.11
2018-07-02T15:04:03.520Z,25.93
2018-07-02T15:05:03.448Z,26.15
2018-07-02T15:06:56.837Z,25.93
2018-07-02T15:07:56.690Z,25.64
2018-07-02T15:09:50.006Z,25.86
2018-07-02T15:10:49.926Z,25.88
2018-07-02T15:12:43.221Z,25.97
2018-07-02T15:13:43.166Z,26.03
2018-07-02T15:15:36.515Z,26.26
2018-07-02T15:16:36.404Z,26.32
2018-07-02T15:18:29.724Z,26.61
2018-07-02T15:19:29.635Z,26.60
2018-07-02T15:21:22.925Z,26.68
2018-07-02T15:22:22.869Z,26.49
2018-07-02T15:24:16.183Z,26.01
2018-07-02T15:25:16.109Z,25.97
2018-07-02T15:27:09.402Z,25.99
2018-07-02T15:28:09.350Z,25.88
2018-07-02T15:30:02.663Z,25.91
2018-07-02T15:31:02.582Z,25.96
2018-07-02T15:32:55.878Z,25.91
2018-07-02T15:33:55.845Z,25.85
2018-07-02T15:35:49.187Z,25.93
2018-07-02T15:36:49.060Z,26.00
2018-07-02T15:38:42.343Z,26.09
2018-07-02T15:39:42.288Z,26.23
2018-07-02T15:41:35.662Z,26.24
2018-07-02T15:42:35.526Z,26.22
2018-07-02T15:44:28.836Z,26.24
2018-07-02T15:45:28.763Z,26.35
2018-07-02T15:47:22.059Z,26.01
2018-07-02T15:48:22.051Z,26.15
2018-07-02T15:50:15.312Z,26.35
2018-07-02T15:51:15.239Z,26.31
2018-07-02T15:53:08.578Z,26.34
2018-07-02T15:54:08.476Z,26.23
2018-07-02T15:56:01.981Z,26.57
2018-07-02T15:57:01.714Z,26.64
2018-07-02T15:58:55.009Z,26.26
2018-07-02T15:59:54.952Z,26.23
2018-07-02T16:01:48.363Z,26.57
2018-07-02T16:02:48.288Z,26.64
2018-07-02T16:04:41.583Z,26.45
2018-07-02T16:05:41.525Z,26.45
2018-07-02T16:07:34.840Z,26.23
2018-07-02T16:08:34.764Z,26.12
2018-07-02T16:10:28.074Z,26.26
2018-07-02T16:11:28.005Z,26.34
2018-07-02T16:13:21.294Z,26.59
2018-07-02T16:14:21.241Z,26.75
2018-07-02T16:16:14.581Z,26.86
2018-07-02T16:17:14.479Z,26.75
2018-07-02T16:19:07.939Z,26.69
2018-07-02T16:20:07.720Z,26.60
2018-07-02T16:22:01.030Z,26.47
2018-07-02T16:23:00.956Z,26.47
2018-07-02T16:24:54.345Z,26.31
2018-07-02T16:25:54.291Z,26.24
2018-07-02T16:27:47.602Z,26.27
2018-07-02T16:28:47.529Z,26.27
2018-07-02T16:30:40.841Z,26.30
2018-07-02T16:31:40.769Z,26.27
2018-07-02T16:33:34.063Z,25.97
2018-07-02T16:34:34.007Z,26.06
2018-07-02T16:36:27.322Z,26.12
2018-07-02T16:37:27.245Z,26.23
2018-07-02T16:39:20.543Z,26.03
2018-07-02T16:40:20.481Z,25.85
2018-07-02T16:42:13.792Z,25.91
2018-07-02T16:43:13.719Z,25.99
2018-07-02T16:45:07.013Z,25.69
2018-07-02T16:46:06.952Z,25.70
2018-07-02T16:48:00.326Z,25.88
2018-07-02T16:49:00.187Z,25.84
2018-07-02T16:50:53.497Z,26.11
2018-07-02T16:51:53.424Z,26.00
2018-07-02T16:53:46.720Z,26.01
2018-07-02T16:54:46.725Z,26.07
2018-07-02T16:56:39.975Z,26.15
2018-07-02T16:57:39.903Z,25.99
2018-07-02T16:59:33.190Z,26.15
2018-07-02T17:00:33.136Z,25.97
2018-07-02T17:02:26.457Z,25.82
2018-07-02T17:03:26.384Z,25.74
2018-07-02T17:05:19.674Z,25.79
2018-07-02T17:06:19.719Z,25.75
2018-07-02T17:08:12.926Z,25.67
2018-07-02T17:09:12.852Z,25.79
2018-07-02T17:11:06.261Z,25.67
2018-07-02T17:12:06.090Z,25.64
2018-07-02T17:13:59.379Z,25.88
2018-07-02T17:14:59.324Z,25.85
2018-07-02T17:16:52.732Z,26.11
2018-07-02T17:17:52.560Z,26.03
2018-07-02T17:19:45.851Z,25.82
2018-07-02T17:20:45.795Z,25.75
2018-07-02T17:22:39.130Z,25.57
2018-07-02T17:23:39.036Z,25.54
2018-07-02T17:25:32.325Z,25.62
2018-07-02T17:26:32.271Z,25.60
2018-07-02T17:28:25.626Z,25.51
2018-07-02T17:29:25.498Z,25.52
2018-07-02T17:31:18.815Z,25.63
2018-07-02T17:32:18.735Z,25.63
2018-07-02T17:34:12.028Z,25.54
2018-07-02T17:35:11.971Z,25.51
2018-07-02T17:37:05.364Z,25.62
2018-07-02T17:38:05.289Z,25.48
2018-07-02T17:39:58.581Z,25.57
2018-07-02T17:40:58.529Z,25.63
2018-07-02T17:42:51.836Z,25.69
2018-07-02T17:43:51.765Z,25.57
2018-07-02T17:45:45.058Z,25.38
2018-07-02T17:46:44.997Z,25.37
2018-07-02T17:48:39.369Z,25.30
2018-07-02T17:49:39.287Z,25.26
2018-07-02T17:51:32.589Z,25.42
2018-07-02T17:52:32.531Z,25.37
2018-07-02T17:54:25.843Z,25.37
2018-07-02T17:55:25.766Z,25.51
2018-07-02T17:57:20.076Z,25.48
2018-07-02T17:58:20.004Z,25.56
2018-07-02T18:00:13.344Z,25.09
2018-07-02T18:01:13.288Z,25.08
2018-07-02T18:03:06.597Z,25.09
2018-07-02T18:04:06.523Z,25.02
2018-07-02T18:05:59.813Z,25.02
2018-07-02T18:06:59.756Z,25.08
2018-07-02T18:08:53.069Z,25.00
2018-07-02T18:09:52.999Z,25.00
2018-07-02T18:11:47.342Z,24.87
2018-07-02T18:12:47.350Z,24.92
2018-07-02T18:14:40.598Z,24.86
2018-07-02T18:15:40.522Z,25.00
2018-07-02T18:17:34.829Z,24.94
2018-07-02T18:18:34.761Z,25.01
2018-07-02T18:20:29.045Z,24.97
2018-07-02T18:21:28.988Z,24.87
2018-07-02T18:23:22.299Z,25.02
2018-07-02T18:24:22.226Z,24.82
2018-07-02T18:26:15.511Z,25.02
2018-07-02T18:27:15.460Z,25.00
2018-07-02T18:29:09.768Z,25.00
2018-07-02T18:30:09.694Z,24.86
2018-07-02T18:32:03.035Z,24.80
2018-07-02T18:33:02.930Z,24.83
2018-07-02T18:34:56.239Z,24.77